^^
Station Historical Data
Daily Summary for March 7, 2017 Units:  English    Metric   Both
« Previous Day
Next Day »
Daily Weekly Monthly Yearly Custom
  High: Low: Average:
Temperature: 50.8 °F 38.2 °F 44.5 °F
Dew Point: 47.4 °F 28.6 °F 41.2 °F
Humidity: 94% 68% 88%
Wind Speed: 3.0mph 0.0mph 0.5mph
Wind Gust: 9.0mph - -
Wind- - SSW
Pressure: 30.44 in 30.02 in -
Precipitation: 0.10 in    
Historical Graphs
 
 
Tabular Data for March 7, 2017
Time Temperature Dew Point Pressure Wind Wind Speed Wind Gust Humidity Rainfall Rate (Hourly) Conditions
00:00 38.2 °F 28.6 °F 30.44 in Calm   2.0 mph 68% 0.00 in BKN
00:15 38.3 °F 28.7 °F 30.44 in Calm   5.0 mph 68% 0.00 in OVC
00:30 38.4 °F 28.8 °F 30.43 in SSW 1.0 mph 4.0 mph 68% 0.00 in OVC
00:45 38.4 °F 29.1 °F 30.43 in Calm   3.0 mph 69% 0.00 in OVC
01:00 38.5 °F 29.2 °F 30.43 in Calm   5.0 mph 69% 0.00 in OVC
02:15 38.9 °F 29.9 °F 30.41 in Calm   3.0 mph 70% 0.00 in OVC
02:30 39.1 °F 30.8 °F 30.41 in Calm   5.0 mph 72% 0.00 in OVC
02:45 39.2 °F 31.3 °F 30.40 in South 1.0 mph 3.0 mph 73% 0.00 in OVC
03:00 39.2 °F 31.6 °F 30.40 in Calm   1.0 mph 74% 0.00 in OVC
03:15 39.2 °F 31.9 °F 30.40 in Calm   3.0 mph 75% 0.00 in OVC
03:30 39.2 °F 32.3 °F 30.39 in Calm   2.0 mph 76% 0.00 in OVC
03:45 38.9 °F 32.3 °F 30.39 in Calm   3.0 mph 77% 0.00 in OVC
04:00 38.7 °F 32.4 °F 30.39 in Calm   1.0 mph 78% 0.00 in OVC
04:15 38.5 °F 33.2 °F 30.39 in Calm   2.0 mph 81% 0.00 in OVC
04:30 38.5 °F 33.5 °F 30.39 in Calm   2.0 mph 82% 0.00 in OVC
04:45 38.7 °F 33.7 °F 30.39 in Calm   2.0 mph 82% 0.00 in OVC
05:00 38.7 °F 34.3 °F 30.39 in Calm   1.0 mph 84% 0.00 in OVC
05:15 38.7 °F 34.5 °F 30.39 in Calm   1.0 mph 85% 0.00 in OVC
05:30 38.5 °F 34.9 °F 30.39 in Calm   1.0 mph 87% 0.00 in OVC
05:45 38.3 °F 35.1 °F 30.39 in Calm   3.0 mph 88% 0.00 in OVC
06:00 38.2 °F 35.2 °F 30.39 in Calm   2.0 mph 89% 0.01 in RA
06:15 38.2 °F 35.6 °F 30.39 in Calm   2.0 mph 90% 0.00 in -RA
06:30 38.3 °F 35.6 °F 30.38 in NNE 1.0 mph 2.0 mph 90% 0.00 in -RA
06:45 38.4 °F 36.0 °F 30.38 in Calm   2.0 mph 91% 0.00 in -RA
07:00 38.6 °F 36.2 °F 30.38 in Calm   4.0 mph 91% 0.00 in -RA
07:15 39.1 °F 37.0 °F 30.38 in Calm   2.0 mph 92% 0.00 in -RA
07:30 39.5 °F 37.4 °F 30.38 in Calm   2.0 mph 92% 0.00 in -RA
07:45 39.8 °F 37.7 °F 30.37 in Calm   2.0 mph 92% 0.01 in -RA
08:00 40.2 °F 38.1 °F 30.38 in Calm   2.0 mph 92% 0.00 in -RA
08:15 40.7 °F 38.6 °F 30.37 in Calm   2.0 mph 92% 0.00 in BKN
08:30 41.5 °F 39.3 °F 30.36 in Calm   3.0 mph 92% 0.00 in BKN
08:45 42.4 °F 40.3 °F 30.36 in South 2.0 mph 6.0 mph 92% 0.00 in BKN
09:00 43.0 °F 40.8 °F 30.36 in SSW 1.0 mph 5.0 mph 92% 0.00 in BKN
09:15 43.7 °F 41.5 °F 30.35 in South 1.0 mph 6.0 mph 92% 0.01 in RA
09:30 44.3 °F 42.4 °F 30.34 in SSW 1.0 mph 5.0 mph 93% 0.00 in BKN
09:45 44.7 °F 42.8 °F 30.33 in Calm   9.0 mph 93% 0.01 in BKN
10:00 45.2 °F 43.3 °F 30.32 in SSW 3.0 mph 6.0 mph 93% 0.01 in BKN
10:15 45.6 °F 44.0 °F 30.31 in South 2.0 mph 9.0 mph 94% 0.02 in RA
10:30 45.9 °F 44.3 °F 30.31 in SSW 1.0 mph 5.0 mph 94% 0.00 in OVC
10:45 46.1 °F 44.5 °F 30.31 in SW 2.0 mph 8.0 mph 94% 0.01 in OVC
11:00 46.2 °F 44.6 °F 30.30 in South 1.0 mph 6.0 mph 94% 0.01 in RA
11:15 46.3 °F 44.7 °F 30.29 in SSW 1.0 mph 6.0 mph 94% 0.00 in -RA
11:30 46.7 °F 45.1 °F 30.29 in SW 2.0 mph 4.0 mph 94% 0.00 in -RA
11:45 47.1 °F 45.5 °F 30.28 in SSW 2.0 mph 4.0 mph 94% 0.00 in -RA
12:00 47.3 °F 45.7 °F 30.27 in SSW 2.0 mph 6.0 mph 94% 0.00 in -RA
12:15 47.3 °F 45.7 °F 30.26 in South 1.0 mph 6.0 mph 94% 0.01 in -RA
12:30 47.5 °F 45.9 °F 30.25 in South 3.0 mph 7.0 mph 94% 0.00 in -RA
12:45 47.6 °F 46.0 °F 30.24 in SSW 2.0 mph 7.0 mph 94% 0.00 in -RA
13:00 47.7 °F 45.8 °F 30.24 in SSE 1.0 mph 7.0 mph 93% 0.00 in -RA
13:15 48.1 °F 46.2 °F 30.23 in SW 1.0 mph 7.0 mph 93% 0.00 in OVC
13:30 48.4 °F 46.5 °F 30.23 in South 2.0 mph 5.0 mph 93% 0.00 in OVC
13:45 49.0 °F 46.8 °F 30.22 in South 1.0 mph 5.0 mph 92% 0.00 in OVC
14:00 49.9 °F 47.4 °F 30.21 in SW 1.0 mph 6.0 mph 91% 0.00 in OVC
14:15 50.1 °F 47.0 °F 30.20 in SSW 1.0 mph 8.0 mph 89% 0.00 in -DZ
14:30 50.6 °F 47.2 °F 30.19 in SSW 2.0 mph 6.0 mph 88% 0.00 in -DZ
14:45 50.3 °F 46.9 °F 30.19 in Calm   5.0 mph 88% 0.00 in -DZ
15:00 50.2 °F 47.1 °F 30.19 in Calm   5.0 mph 89% 0.00 in -DZ
15:15 50.1 °F 46.7 °F 30.19 in Calm   2.0 mph 88% 0.00 in -DZ
15:30 49.7 °F 46.3 °F 30.19 in Calm   4.0 mph 88% 0.00 in -DZ
15:45 49.5 °F 46.4 °F 30.19 in Calm   2.0 mph 89% 0.00 in -DZ
16:00 48.9 °F 45.8 °F 30.18 in Calm   4.0 mph 89% 0.00 in -DZ
16:15 48.5 °F 45.7 °F 30.17 in Calm   1.0 mph 90% 0.00 in -RA
16:30 48.3 °F 45.5 °F 30.17 in Calm   3.0 mph 90% 0.00 in -RA
16:45 47.9 °F 45.1 °F 30.17 in NNW 1.0 mph 3.0 mph 90% 0.00 in -RA
17:00 47.6 °F 45.1 °F 30.16 in Calm   5.0 mph 91% 0.00 in -RA
17:15 47.5 °F 45.0 °F 30.16 in Calm   3.0 mph 91% 0.00 in BKN
17:30 47.4 °F 44.9 °F 30.16 in Calm   1.0 mph 91% 0.00 in BKN
17:45 47.2 °F 45.0 °F 30.15 in Calm   4.0 mph 92% 0.00 in BKN
18:00 46.9 °F 44.7 °F 30.14 in North 1.0 mph 3.0 mph 92% 0.00 in BKN
18:15 46.6 °F 44.4 °F 30.14 in Calm   3.0 mph 92% 0.00 in BKN
18:30 46.2 °F 44.0 °F 30.14 in Calm   2.0 mph 92% 0.00 in BKN
18:45 46.1 °F 44.2 °F 30.13 in Calm   3.0 mph 93% 0.00 in BKN
19:00 45.8 °F 43.9 °F 30.13 in Calm   3.0 mph 93% 0.00 in BKN
19:15 45.5 °F 43.6 °F 30.13 in Calm   2.0 mph 93% 0.00 in CLR
19:30 45.4 °F 43.8 °F 30.13 in Calm   3.0 mph 94% 0.00 in CLR
19:45 45.4 °F 43.8 °F 30.13 in Calm   1.0 mph 94% 0.00 in CLR
20:00 45.5 °F 43.9 °F 30.12 in Calm   1.0 mph 94% 0.00 in CLR
20:15 45.7 °F 44.1 °F 30.12 in Calm   2.0 mph 94% 0.00 in BKN
20:30 45.8 °F 43.9 °F 30.12 in Calm   1.0 mph 93% 0.00 in BKN
20:45 45.9 °F 44.0 °F 30.11 in Calm   1.0 mph 93% 0.00 in BKN
21:00 45.9 °F 44.0 °F 30.10 in Calm   1.0 mph 93% 0.00 in BKN
21:15 46.6 °F 45.0 °F 30.10 in Calm   3.0 mph 94% 0.00 in BKN
21:30 47.2 °F 45.0 °F 30.09 in Calm   3.0 mph 92% 0.00 in BKN
21:45 47.5 °F 45.3 °F 30.09 in Calm   2.0 mph 92% 0.00 in BKN
22:00 47.6 °F 45.1 °F 30.08 in Calm   2.0 mph 91% 0.00 in BKN
22:15 47.9 °F 45.4 °F 30.07 in Calm   3.0 mph 91% 0.00 in -RA
22:30 48.5 °F 46.3 °F 30.06 in Calm   4.0 mph 92% 0.00 in -RA
22:45 49.3 °F 46.5 °F 30.06 in South 1.0 mph 3.0 mph 90% 0.00 in -RA
23:00 49.6 °F 46.5 °F 30.05 in South 1.0 mph 6.0 mph 89% 0.00 in -RA
23:15 50.1 °F 46.7 °F 30.04 in South 1.0 mph 5.0 mph 88% 0.00 in BKN
23:30 50.8 °F 47.0 °F 30.03 in Calm   5.0 mph 87% 0.00 in BKN
23:45 50.8 °F 46.7 °F 30.02 in Calm   7.0 mph 86% 0.00 in BKN
TarryTown NY Weather
Compliments of Weather Underground - 1.5 mb